createdAt,value
2018-01-13T00:00:01.110Z,3.54
2018-01-13T00:00:05.029Z,3.54
2018-01-13T00:00:08.851Z,3.53
2018-01-13T00:00:12.549Z,3.54
2018-01-13T00:00:16.249Z,3.53
2018-01-13T00:00:20.276Z,3.54
2018-01-13T00:00:24.288Z,3.53
2018-01-13T00:00:28.082Z,3.54
2018-01-13T00:00:32.095Z,3.54
2018-01-13T00:00:35.919Z,3.53
2018-01-13T00:00:39.729Z,3.53
2018-01-13T00:00:43.643Z,3.54
2018-01-13T00:00:47.768Z,3.53
2018-01-13T00:00:51.789Z,3.53
2018-01-13T00:00:55.702Z,3.54
2018-01-13T00:00:59.602Z,3.52
2018-01-13T00:01:03.509Z,3.53
2018-01-13T00:01:07.417Z,3.53
2018-01-13T00:01:11.233Z,3.52
2018-01-13T00:01:15.040Z,3.53
2018-01-13T00:01:19.035Z,3.53
2018-01-13T00:01:22.742Z,3.54
2018-01-13T00:01:26.751Z,3.53
2018-01-13T00:01:30.766Z,3.53
2018-01-13T00:01:34.785Z,3.53
2018-01-13T00:01:38.582Z,3.54
2018-01-13T00:01:42.385Z,3.53
2018-01-13T00:01:46.495Z,3.53
2018-01-13T00:01:50.309Z,3.54
2018-01-13T00:01:54.122Z,3.53
2018-01-13T00:01:57.945Z,3.53
2018-01-13T00:02:01.970Z,3.54
2018-01-13T00:02:05.784Z,3.53
2018-01-13T00:02:09.691Z,3.53
2018-01-13T00:02:13.709Z,3.53
2018-01-13T00:02:18.048Z,3.53
2018-01-13T00:02:22.275Z,3.53
2018-01-13T00:02:26.188Z,3.52
2018-01-13T00:02:30.210Z,3.52
2018-01-13T00:02:34.224Z,3.53
2018-01-13T00:02:38.141Z,3.53
2018-01-13T00:02:41.843Z,3.53
2018-01-13T00:02:45.755Z,3.53
2018-01-13T00:02:49.787Z,3.53
2018-01-13T00:02:53.799Z,3.52
2018-01-13T00:02:57.801Z,3.52
2018-01-13T00:03:02.072Z,3.52
2018-01-13T00:03:06.096Z,3.53
2018-01-13T00:03:09.806Z,3.52
2018-01-13T00:03:13.808Z,3.52
2018-01-13T00:03:17.938Z,3.52
2018-01-13T00:03:21.858Z,3.52
2018-01-13T00:03:25.878Z,3.52
2018-01-13T00:03:29.574Z,3.52
2018-01-13T00:03:33.276Z,3.52
2018-01-13T00:03:37.074Z,3.52
2018-01-13T00:03:41.251Z,3.52
2018-01-13T00:03:45.271Z,3.52
2018-01-13T00:03:49.394Z,3.52
2018-01-13T00:03:53.510Z,3.52
2018-01-13T00:03:57.320Z,3.51
2018-01-13T00:04:01.223Z,3.52
2018-01-13T00:04:05.346Z,3.52
2018-01-13T00:04:09.241Z,3.51
2018-01-13T00:04:13.246Z,3.51
2018-01-13T00:04:17.371Z,3.52
2018-01-13T00:04:21.608Z,3.52
2018-01-13T00:04:25.729Z,3.51
2018-01-13T00:04:29.740Z,3.51
2018-01-13T00:04:33.751Z,3.51
2018-01-13T00:04:37.818Z,3.52
2018-01-13T00:04:41.749Z,3.51
2018-01-13T00:04:45.663Z,3.52
2018-01-13T00:04:49.683Z,3.51
2018-01-13T00:04:53.806Z,3.51
2018-01-13T00:04:57.636Z,3.51
2018-01-13T00:05:01.783Z,3.51
2018-01-13T00:05:05.630Z,3.5
2018-01-13T00:05:09.634Z,3.51
2018-01-13T00:05:13.423Z,3.51
2018-01-13T00:05:17.230Z,3.5
2018-01-13T00:05:21.054Z,3.5
2018-01-13T00:05:25.066Z,3.5
2018-01-13T00:05:29.098Z,3.5
2018-01-13T00:05:33.225Z,3.5
2018-01-13T00:05:37.037Z,3.51
2018-01-13T00:05:41.090Z,3.5
2018-01-13T00:05:45.112Z,3.51
2018-01-13T00:05:49.127Z,3.49
2018-01-13T00:05:53.035Z,3.49
2018-01-13T00:05:56.727Z,3.5
2018-01-13T00:06:00.531Z,3.49
2018-01-13T00:06:04.751Z,3.49
2018-01-13T00:06:08.764Z,3.49
2018-01-13T00:06:12.563Z,3.5
2018-01-13T00:06:16.795Z,3.49
2018-01-13T00:06:20.816Z,3.49
2018-01-13T00:06:24.625Z,3.49
2018-01-13T00:06:28.546Z,3.49
2018-01-13T00:06:32.447Z,3.49
2018-01-13T00:06:36.471Z,3.49
2018-01-13T00:06:40.477Z,3.48
2018-01-13T00:06:44.504Z,3.48
2018-01-13T00:06:48.407Z,3.48
2018-01-13T00:06:52.203Z,3.48
2018-01-13T00:06:56.239Z,3.48
2018-01-13T00:07:00.149Z,3.48
2018-01-13T00:07:04.175Z,3.48
2018-01-13T00:07:08.204Z,3.49
2018-01-13T00:07:12.237Z,3.48
2018-01-13T00:07:16.061Z,3.48
2018-01-13T00:07:19.971Z,3.48
2018-01-13T00:07:23.893Z,3.47
2018-01-13T00:07:28.023Z,3.47
2018-01-13T00:07:31.943Z,3.48
2018-01-13T00:07:35.950Z,3.47
2018-01-13T00:07:39.770Z,3.48
2018-01-13T00:07:43.472Z,3.48
2018-01-13T00:07:47.382Z,3.48
2018-01-13T00:07:51.098Z,3.48
2018-01-13T00:07:55.210Z,3.47
2018-01-13T00:07:59.224Z,3.47
2018-01-13T00:08:03.141Z,3.47
2018-01-13T00:08:07.045Z,3.47
2018-01-13T00:08:10.952Z,3.48
2018-01-13T00:08:14.974Z,3.47
2018-01-13T00:08:18.900Z,3.48
2018-01-13T00:08:22.796Z,3.48
2018-01-13T00:08:26.714Z,3.48
2018-01-13T00:08:30.728Z,3.47
2018-01-13T00:08:34.422Z,3.47
2018-01-13T00:08:38.325Z,3.46
2018-01-13T00:08:42.437Z,3.46
2018-01-13T00:08:46.448Z,3.47
2018-01-13T00:08:50.359Z,3.46
2018-01-13T00:08:54.370Z,3.47
2018-01-13T00:08:58.393Z,3.47
2018-01-13T00:09:02.545Z,3.46
2018-01-13T00:09:06.253Z,3.46
2018-01-13T00:09:10.061Z,3.47
2018-01-13T00:09:13.857Z,3.46
2018-01-13T00:09:17.762Z,3.46
2018-01-13T00:09:21.878Z,3.46
2018-01-13T00:09:25.787Z,3.46
2018-01-13T00:09:29.593Z,3.47
2018-01-13T00:09:33.414Z,3.46
2018-01-13T00:09:37.529Z,3.46
2018-01-13T00:09:41.537Z,3.46
2018-01-13T00:09:45.607Z,3.46
2018-01-13T00:09:49.919Z,3.46
2018-01-13T00:09:54.046Z,3.46
2018-01-13T00:09:57.742Z,3.46
2018-01-13T00:10:01.760Z,3.47
2018-01-13T00:10:05.665Z,3.46
2018-01-13T00:10:09.481Z,3.46
2018-01-13T00:10:13.496Z,3.45
2018-01-13T00:10:17.502Z,3.46
2018-01-13T00:10:21.516Z,3.45
2018-01-13T00:10:25.322Z,3.46
2018-01-13T00:10:29.135Z,3.46
2018-01-13T00:10:32.935Z,3.45
2018-01-13T00:10:36.754Z,3.45
2018-01-13T00:10:40.666Z,3.45
2018-01-13T00:10:44.586Z,3.45
2018-01-13T00:10:48.536Z,3.45
2018-01-13T00:10:52.448Z,3.45
2018-01-13T00:10:56.449Z,3.45
2018-01-13T00:11:00.367Z,3.45
2018-01-13T00:11:04.470Z,3.45
2018-01-13T00:11:08.381Z,3.45
2018-01-13T00:11:12.520Z,3.45
2018-01-13T00:11:16.546Z,3.45
2018-01-13T00:11:20.476Z,3.44
2018-01-13T00:11:24.281Z,3.45
2018-01-13T00:11:28.199Z,3.44
2018-01-13T00:11:32.219Z,3.45
2018-01-13T00:11:35.931Z,3.45
2018-01-13T00:11:39.951Z,3.45
2018-01-13T00:11:43.851Z,3.44
2018-01-13T00:11:47.886Z,3.45
2018-01-13T00:11:51.686Z,3.45
2018-01-13T00:11:55.698Z,3.44
2018-01-13T00:11:59.703Z,3.45
2018-01-13T00:12:03.877Z,3.44
2018-01-13T00:12:07.892Z,3.44
2018-01-13T00:12:11.701Z,3.42
2018-01-13T00:12:15.711Z,3.44
2018-01-13T00:12:19.625Z,3.44
2018-01-13T00:12:23.534Z,3.44
2018-01-13T00:12:27.445Z,3.44
2018-01-13T00:12:31.349Z,3.44
2018-01-13T00:12:35.372Z,3.43
2018-01-13T00:12:39.188Z,3.43
2018-01-13T00:12:43.199Z,3.44
2018-01-13T00:12:47.308Z,3.43
2018-01-13T00:12:51.222Z,3.43
2018-01-13T00:12:55.146Z,3.44
2018-01-13T00:12:59.054Z,3.43
2018-01-13T00:13:03.070Z,3.44
2018-01-13T00:13:06.985Z,3.43
2018-01-13T00:13:11.137Z,3.43
2018-01-13T00:13:15.256Z,3.43
2018-01-13T00:13:19.273Z,3.42
2018-01-13T00:13:23.088Z,3.43
2018-01-13T00:13:27.120Z,3.43
2018-01-13T00:13:30.932Z,3.43
2018-01-13T00:13:34.831Z,3.42
2018-01-13T00:13:38.973Z,3.43
2018-01-13T00:13:42.883Z,3.43
2018-01-13T00:13:46.906Z,3.43
2018-01-13T00:13:50.812Z,3.43
2018-01-13T00:13:54.531Z,3.42
2018-01-13T00:13:58.467Z,3.43
2018-01-13T00:14:02.632Z,3.43
2018-01-13T00:14:06.524Z,3.43
2018-01-13T00:14:10.536Z,3.42
2018-01-13T00:14:14.770Z,3.43
2018-01-13T00:14:18.788Z,3.43
2018-01-13T00:14:22.852Z,3.43
2018-01-13T00:14:26.545Z,3.42
2018-01-13T00:14:30.357Z,3.43
2018-01-13T00:14:34.167Z,3.43
2018-01-13T00:14:37.968Z,3.42
2018-01-13T00:14:41.768Z,3.42
2018-01-13T00:14:45.682Z,3.43
2018-01-13T00:14:49.802Z,3.42
2018-01-13T00:14:53.602Z,3.42
2018-01-13T00:14:57.305Z,3.41
2018-01-13T00:15:01.132Z,3.42
2018-01-13T00:15:05.207Z,3.41
2018-01-13T00:15:09.031Z,3.41
2018-01-13T00:15:13.031Z,3.42
2018-01-13T00:15:16.835Z,3.42
2018-01-13T00:15:20.755Z,3.42
2018-01-13T00:15:24.783Z,3.42
2018-01-13T00:15:28.688Z,3.42
2018-01-13T00:15:32.590Z,3.42
2018-01-13T00:15:36.598Z,3.41
2018-01-13T00:15:40.506Z,3.42
2018-01-13T00:15:44.632Z,3.42
2018-01-13T00:15:48.654Z,3.4
2018-01-13T00:15:52.573Z,3.42
2018-01-13T00:15:56.684Z,3.42
2018-01-13T00:16:00.590Z,3.42
2018-01-13T00:16:04.514Z,3.42
2018-01-13T00:16:08.318Z,3.42
2018-01-13T00:16:12.340Z,3.4
2018-01-13T00:16:16.038Z,3.41
2018-01-13T00:16:19.730Z,3.42
2018-01-13T00:16:23.560Z,3.41
2018-01-13T00:16:27.593Z,3.41
2018-01-13T00:16:31.410Z,3.41
2018-01-13T00:16:35.416Z,3.41
2018-01-13T00:16:39.335Z,3.41
2018-01-13T00:16:43.452Z,3.42
2018-01-13T00:16:47.559Z,3.4
2018-01-13T00:16:51.354Z,3.41
2018-01-13T00:16:55.251Z,3.42
2018-01-13T00:16:59.040Z,3.42
2018-01-13T00:17:03.264Z,3.42
2018-01-13T00:17:07.078Z,3.42
2018-01-13T00:17:10.884Z,3.41
2018-01-13T00:17:14.793Z,3.41
2018-01-13T00:17:18.807Z,3.41
2018-01-13T00:17:22.819Z,3.41
2018-01-13T00:17:26.929Z,3.41
2018-01-13T00:17:30.627Z,3.41
2018-01-13T00:17:34.540Z,3.41
2018-01-13T00:17:38.457Z,3.41
2018-01-13T00:17:42.155Z,3.42
2018-01-13T00:17:46.176Z,3.41
2018-01-13T00:17:50.080Z,3.41
2018-01-13T00:17:53.882Z,3.42
2018-01-13T00:17:57.790Z,3.42
2018-01-13T00:18:01.972Z,3.41
2018-01-13T00:18:06.095Z,3.41
2018-01-13T00:18:10.224Z,3.41
2018-01-13T00:18:14.131Z,3.41
2018-01-13T00:18:18.147Z,3.41
2018-01-13T00:18:22.160Z,3.41
2018-01-13T00:18:26.091Z,3.41
2018-01-13T00:18:30.120Z,3.41
2018-01-13T00:18:33.832Z,3.41
2018-01-13T00:18:37.630Z,3.41
2018-01-13T00:18:41.653Z,3.4
2018-01-13T00:18:45.554Z,3.41
2018-01-13T00:18:49.251Z,3.41
2018-01-13T00:18:53.157Z,3.41
2018-01-13T00:18:57.186Z,3.4
2018-01-13T00:19:01.096Z,3.4
2018-01-13T00:19:05.207Z,3.41
2018-01-13T00:19:09.016Z,3.41
2018-01-13T00:19:12.821Z,3.41
2018-01-13T00:19:16.729Z,3.41
2018-01-13T00:19:20.751Z,3.4
2018-01-13T00:19:24.652Z,3.41
2018-01-13T00:19:28.341Z,3.4
2018-01-13T00:19:32.561Z,3.4
2018-01-13T00:19:36.565Z,3.41
2018-01-13T00:19:40.368Z,3.4
2018-01-13T00:19:44.066Z,3.4
2018-01-13T00:19:47.985Z,3.41
2018-01-13T00:19:52.003Z,3.4
2018-01-13T00:19:55.918Z,3.4
2018-01-13T00:19:59.838Z,3.41
2018-01-13T00:20:03.533Z,3.4
2018-01-13T00:20:07.563Z,3.4
2018-01-13T00:20:11.483Z,3.4
2018-01-13T00:20:15.316Z,3.4
2018-01-13T00:20:19.122Z,3.41
2018-01-13T00:20:23.036Z,3.4
2018-01-13T00:20:26.838Z,3.41
2018-01-13T00:20:30.744Z,3.4
2018-01-13T00:20:34.752Z,3.41
2018-01-13T00:20:38.547Z,3.4
2018-01-13T00:20:42.565Z,3.4
2018-01-13T00:20:46.569Z,3.4
2018-01-13T00:20:50.594Z,3.4
2018-01-13T00:20:54.721Z,3.4
2018-01-13T00:20:58.533Z,3.4
2018-01-13T00:21:02.556Z,3.39
2018-01-13T00:21:06.356Z,3.39
2018-01-13T00:21:10.486Z,3.39
2018-01-13T00:21:14.301Z,3.39
2018-01-13T00:21:18.110Z,3.4
2018-01-13T00:21:21.909Z,3.4
2018-01-13T00:21:25.712Z,3.39
2018-01-13T00:21:29.507Z,3.39
2018-01-13T00:21:33.305Z,3.4
2018-01-13T00:21:37.104Z,3.39
2018-01-13T00:21:40.909Z,3.39
2018-01-13T00:21:44.941Z,3.4
2018-01-13T00:21:48.846Z,3.39
2018-01-13T00:21:52.551Z,3.39
2018-01-13T00:21:56.586Z,3.4
2018-01-13T00:22:00.725Z,3.38
2018-01-13T00:22:04.543Z,3.39
2018-01-13T00:22:08.469Z,3.39
2018-01-13T00:22:12.382Z,3.39
2018-01-13T00:22:16.409Z,3.39
2018-01-13T00:22:20.426Z,3.39
2018-01-13T00:22:24.549Z,3.39
2018-01-13T00:22:28.567Z,3.39
2018-01-13T00:22:32.367Z,3.39
2018-01-13T00:22:36.187Z,3.39
2018-01-13T00:22:40.102Z,3.39
2018-01-13T00:22:43.896Z,3.38
2018-01-13T00:22:47.713Z,3.39
2018-01-13T00:22:51.731Z,3.39
2018-01-13T00:22:55.535Z,3.38
2018-01-13T00:22:59.323Z,3.39
2018-01-13T00:23:03.329Z,3.38
2018-01-13T00:23:07.247Z,3.4
2018-01-13T00:23:11.378Z,3.38
2018-01-13T00:23:15.285Z,3.39
2018-01-13T00:23:19.206Z,3.39
2018-01-13T00:23:23.436Z,3.39
2018-01-13T00:23:27.445Z,3.39
2018-01-13T00:23:31.146Z,3.39
2018-01-13T00:23:34.944Z,3.38
2018-01-13T00:23:38.961Z,3.39
2018-01-13T00:23:42.750Z,3.4
2018-01-13T00:23:46.673Z,3.39
2018-01-13T00:23:50.711Z,3.39
2018-01-13T00:23:54.823Z,3.38
2018-01-13T00:23:58.932Z,3.39
2018-01-13T00:24:02.737Z,3.39
2018-01-13T00:24:06.760Z,3.39
2018-01-13T00:24:10.783Z,3.39
2018-01-13T00:24:14.574Z,3.39
2018-01-13T00:24:18.276Z,3.39
2018-01-13T00:24:22.297Z,3.39
2018-01-13T00:24:26.110Z,3.39
2018-01-13T00:24:30.128Z,3.38
2018-01-13T00:24:33.952Z,3.39
2018-01-13T00:24:37.772Z,3.39
2018-01-13T00:24:41.693Z,3.39
2018-01-13T00:24:45.918Z,3.39
2018-01-13T00:24:49.942Z,3.39
2018-01-13T00:24:54.056Z,3.38
2018-01-13T00:24:58.175Z,3.39
2018-01-13T00:25:02.293Z,3.39
2018-01-13T00:25:05.985Z,3.38
2018-01-13T00:25:09.781Z,3.38
2018-01-13T00:25:13.800Z,3.38
2018-01-13T00:25:17.824Z,3.38
2018-01-13T00:25:21.632Z,3.39
2018-01-13T00:25:25.551Z,3.39
2018-01-13T00:25:29.453Z,3.39
2018-01-13T00:25:33.379Z,3.39
2018-01-13T00:25:37.273Z,3.39
2018-01-13T00:25:41.075Z,3.38
2018-01-13T00:25:45.091Z,3.38
2018-01-13T00:25:48.992Z,3.38
2018-01-13T00:25:53.370Z,3.38
2018-01-13T00:25:57.184Z,3.37
2018-01-13T00:26:00.993Z,3.39
2018-01-13T00:26:05.263Z,3.38
2018-01-13T00:26:08.979Z,3.37
2018-01-13T00:26:12.879Z,3.38
2018-01-13T00:26:16.906Z,3.38
2018-01-13T00:26:20.902Z,3.37
2018-01-13T00:26:24.904Z,3.38
2018-01-13T00:26:28.812Z,3.38
2018-01-13T00:26:32.953Z,3.38
2018-01-13T00:26:36.973Z,3.38
2018-01-13T00:26:41.005Z,3.37
2018-01-13T00:26:44.919Z,3.38
2018-01-13T00:26:48.837Z,3.38
2018-01-13T00:26:52.862Z,3.38
2018-01-13T00:26:56.897Z,3.38
2018-01-13T00:27:00.802Z,3.37
2018-01-13T00:27:04.712Z,3.38
2018-01-13T00:27:08.531Z,3.37
2018-01-13T00:27:12.532Z,3.37
2018-01-13T00:27:16.331Z,3.38
2018-01-13T00:27:20.566Z,3.37
2018-01-13T00:27:24.577Z,3.37
2018-01-13T00:27:28.595Z,3.37
2018-01-13T00:27:32.510Z,3.36
2018-01-13T00:27:36.325Z,3.37
2018-01-13T00:27:40.354Z,3.38
2018-01-13T00:27:44.168Z,3.38
2018-01-13T00:27:48.277Z,3.37
2018-01-13T00:27:52.063Z,3.37
2018-01-13T00:27:55.857Z,3.37
2018-01-13T00:27:59.766Z,3.38
2018-01-13T00:28:03.774Z,3.37
2018-01-13T00:28:07.583Z,3.38
2018-01-13T00:28:11.894Z,3.37
2018-01-13T00:28:15.913Z,3.37
2018-01-13T00:28:19.705Z,3.36
2018-01-13T00:28:23.623Z,3.37
2018-01-13T00:28:27.537Z,3.37
2018-01-13T00:28:31.327Z,3.37
2018-01-13T00:28:35.144Z,3.37
2018-01-13T00:28:38.957Z,3.37
2018-01-13T00:28:42.883Z,3.37
2018-01-13T00:28:46.903Z,3.37
2018-01-13T00:28:50.817Z,3.36
2018-01-13T00:28:54.728Z,3.37
2018-01-13T00:28:58.529Z,3.37
2018-01-13T00:29:02.494Z,3.38
2018-01-13T00:29:06.287Z,3.37
2018-01-13T00:29:10.190Z,3.37
2018-01-13T00:29:14.200Z,3.37
2018-01-13T00:29:18.310Z,3.36
2018-01-13T00:29:22.220Z,3.37
2018-01-13T00:29:26.126Z,3.38
2018-01-13T00:29:29.929Z,3.37
2018-01-13T00:29:33.743Z,3.38
2018-01-13T00:29:37.651Z,3.36
2018-01-13T00:29:41.551Z,3.37
2018-01-13T00:29:45.586Z,3.38
2018-01-13T00:29:49.505Z,3.37
2018-01-13T00:29:53.424Z,3.37
2018-01-13T00:29:57.545Z,3.37
2018-01-13T00:30:01.468Z,3.36
2018-01-13T00:30:05.379Z,3.35
2018-01-13T00:30:09.513Z,3.36
2018-01-13T00:30:13.424Z,3.37
2018-01-13T00:30:17.665Z,3.36
2018-01-13T00:30:21.791Z,3.37
2018-01-13T00:30:26.020Z,3.36
2018-01-13T00:30:29.733Z,3.37
2018-01-13T00:30:33.660Z,3.35
2018-01-13T00:30:37.577Z,3.37
2018-01-13T00:30:41.388Z,3.36
2018-01-13T00:30:45.501Z,3.36
2018-01-13T00:30:49.508Z,3.36
2018-01-13T00:30:53.659Z,3.36
2018-01-13T00:30:57.666Z,3.36
2018-01-13T00:31:01.466Z,3.36
2018-01-13T00:31:05.489Z,3.36
2018-01-13T00:31:09.291Z,3.36
2018-01-13T00:31:13.515Z,3.35
2018-01-13T00:31:17.533Z,3.36
2018-01-13T00:31:21.355Z,3.35
2018-01-13T00:31:25.254Z,3.36
2018-01-13T00:31:29.168Z,3.36
2018-01-13T00:31:33.075Z,3.35
2018-01-13T00:31:36.999Z,3.35
2018-01-13T00:31:40.702Z,3.35
2018-01-13T00:31:44.509Z,3.36
2018-01-13T00:31:48.736Z,3.36
2018-01-13T00:31:52.871Z,3.35
2018-01-13T00:31:56.789Z,3.35
2018-01-13T00:32:00.605Z,3.35
2018-01-13T00:32:04.734Z,3.35
2018-01-13T00:32:08.742Z,3.35
2018-01-13T00:32:12.762Z,3.36
2018-01-13T00:32:16.892Z,3.35
2018-01-13T00:32:20.793Z,3.35
2018-01-13T00:32:24.819Z,3.35
2018-01-13T00:32:28.721Z,3.35
2018-01-13T00:32:32.623Z,3.34
2018-01-13T00:32:36.425Z,3.35
2018-01-13T00:32:40.443Z,3.34
2018-01-13T00:32:44.613Z,3.34
2018-01-13T00:32:48.539Z,3.35
2018-01-13T00:32:52.549Z,3.35
2018-01-13T00:32:56.573Z,3.34
2018-01-13T00:33:00.486Z,3.34
2018-01-13T00:33:04.842Z,3.34
2018-01-13T00:33:08.747Z,3.34
2018-01-13T00:33:12.553Z,3.34
2018-01-13T00:33:16.365Z,3.34
2018-01-13T00:33:20.378Z,3.34
2018-01-13T00:33:24.180Z,3.34
2018-01-13T00:33:28.203Z,3.33
2018-01-13T00:33:32.000Z,3.33
2018-01-13T00:33:35.802Z,3.34
2018-01-13T00:33:39.828Z,3.34
2018-01-13T00:33:43.841Z,3.34
2018-01-13T00:33:47.855Z,3.34
2018-01-13T00:33:51.869Z,3.34
2018-01-13T00:33:55.878Z,3.34
2018-01-13T00:33:59.677Z,3.34
2018-01-13T00:34:03.854Z,3.34
2018-01-13T00:34:07.771Z,3.34
2018-01-13T00:34:11.585Z,3.35
2018-01-13T00:34:15.925Z,3.34
2018-01-13T00:34:19.932Z,3.35
2018-01-13T00:34:23.946Z,3.34
2018-01-13T00:34:27.858Z,3.34
2018-01-13T00:34:31.683Z,3.35
2018-01-13T00:34:35.732Z,3.35
2018-01-13T00:34:39.757Z,3.34
2018-01-13T00:34:43.779Z,3.34
2018-01-13T00:34:47.699Z,3.34
2018-01-13T00:34:51.716Z,3.34
2018-01-13T00:34:55.617Z,3.34
2018-01-13T00:34:59.643Z,3.34
2018-01-13T00:35:03.606Z,3.34
2018-01-13T00:35:07.832Z,3.34
2018-01-13T00:35:11.752Z,3.33
2018-01-13T00:35:15.665Z,3.34
2018-01-13T00:35:19.783Z,3.34
2018-01-13T00:35:23.698Z,3.33
2018-01-13T00:35:27.720Z,3.33
2018-01-13T00:35:31.540Z,3.34
2018-01-13T00:35:35.345Z,3.34
2018-01-13T00:35:39.373Z,3.34
2018-01-13T00:35:43.288Z,3.34
2018-01-13T00:35:47.709Z,3.34
2018-01-13T00:35:51.637Z,3.33
2018-01-13T00:35:55.723Z,3.34
2018-01-13T00:35:59.642Z,3.34
2018-01-13T00:36:03.355Z,3.34
2018-01-13T00:36:07.158Z,3.34
2018-01-13T00:36:11.058Z,3.34
2018-01-13T00:36:14.976Z,3.34
2018-01-13T00:36:18.887Z,3.33
2018-01-13T00:36:22.797Z,3.34
2018-01-13T00:36:26.600Z,3.33
2018-01-13T00:36:30.498Z,3.34
2018-01-13T00:36:34.321Z,3.34
2018-01-13T00:36:38.219Z,3.34
2018-01-13T00:36:42.339Z,3.34
2018-01-13T00:36:46.344Z,3.34
2018-01-13T00:36:50.264Z,3.34
2018-01-13T00:36:54.379Z,3.35
2018-01-13T00:36:58.386Z,3.35
2018-01-13T00:37:02.302Z,3.34
2018-01-13T00:37:06.301Z,3.34
2018-01-13T00:37:10.319Z,3.34
2018-01-13T00:37:14.348Z,3.34
2018-01-13T00:37:18.245Z,3.34
2018-01-13T00:37:22.150Z,3.33
2018-01-13T00:37:25.847Z,3.34
2018-01-13T00:37:29.871Z,3.34
2018-01-13T00:37:33.559Z,3.34
2018-01-13T00:37:37.472Z,3.34
2018-01-13T00:37:41.305Z,3.34
2018-01-13T00:37:45.321Z,3.34
2018-01-13T00:37:49.332Z,3.34
2018-01-13T00:37:53.128Z,3.34
2018-01-13T00:37:57.050Z,3.34
2018-01-13T00:38:00.849Z,3.34
2018-01-13T00:38:04.879Z,3.34
2018-01-13T00:38:09.044Z,3.34
2018-01-13T00:38:12.843Z,3.33
2018-01-13T00:38:16.863Z,3.34
2018-01-13T00:38:20.872Z,3.34
2018-01-13T00:38:24.793Z,3.33
2018-01-13T00:38:28.822Z,3.34
2018-01-13T00:38:32.745Z,3.34
2018-01-13T00:38:36.833Z,3.34
2018-01-13T00:38:40.858Z,3.34
2018-01-13T00:38:44.659Z,3.34
2018-01-13T00:38:48.868Z,3.34
2018-01-13T00:38:52.881Z,3.35
2018-01-13T00:38:56.695Z,3.34
2018-01-13T00:39:00.498Z,3.35
2018-01-13T00:39:04.566Z,3.34
2018-01-13T00:39:08.396Z,3.34
2018-01-13T00:39:12.202Z,3.34
2018-01-13T00:39:16.221Z,3.34
2018-01-13T00:39:20.018Z,3.34
2018-01-13T00:39:23.923Z,3.34
2018-01-13T00:39:27.833Z,3.35
2018-01-13T00:39:31.748Z,3.34
2018-01-13T00:39:35.547Z,3.35
2018-01-13T00:39:39.582Z,3.34
2018-01-13T00:39:43.485Z,3.35
2018-01-13T00:39:47.287Z,3.35
2018-01-13T00:39:51.202Z,3.35
2018-01-13T00:39:55.100Z,3.35
2018-01-13T00:39:59.020Z,3.35
2018-01-13T00:40:02.976Z,3.35
2018-01-13T00:40:06.899Z,3.35
2018-01-13T00:40:11.028Z,3.36
2018-01-13T00:40:14.933Z,3.35
2018-01-13T00:40:18.625Z,3.34
2018-01-13T00:40:22.643Z,3.35
2018-01-13T00:40:26.560Z,3.35
2018-01-13T00:40:30.564Z,3.35
2018-01-13T00:40:34.479Z,3.36
2018-01-13T00:40:38.291Z,3.36
2018-01-13T00:40:42.433Z,3.35
2018-01-13T00:40:46.466Z,3.35
2018-01-13T00:40:50.483Z,3.36
2018-01-13T00:40:54.510Z,3.36
2018-01-13T00:40:58.423Z,3.35
2018-01-13T00:41:02.552Z,3.36
2018-01-13T00:41:06.574Z,3.36
2018-01-13T00:41:10.368Z,3.36
2018-01-13T00:41:14.371Z,3.36
2018-01-13T00:41:18.486Z,3.38
2018-01-13T00:41:22.280Z,3.37
2018-01-13T00:41:25.987Z,3.37
2018-01-13T00:41:29.791Z,3.38
2018-01-13T00:41:33.697Z,3.37
2018-01-13T00:41:37.510Z,3.37
2018-01-13T00:41:41.422Z,3.36
2018-01-13T00:41:45.361Z,3.37
2018-01-13T00:41:49.386Z,3.38
2018-01-13T00:41:53.272Z,3.36
2018-01-13T00:41:57.179Z,3.38
2018-01-13T00:42:01.310Z,3.37
2018-01-13T00:42:05.893Z,3.38
2018-01-13T00:42:09.804Z,3.38
2018-01-13T00:42:13.834Z,3.37
2018-01-13T00:42:17.753Z,3.37
2018-01-13T00:42:21.538Z,3.38
2018-01-13T00:42:25.331Z,3.37
2018-01-13T00:42:29.036Z,3.37
2018-01-13T00:42:33.073Z,3.38
2018-01-13T00:42:37.137Z,3.38
2018-01-13T00:42:40.937Z,3.39
2018-01-13T00:42:44.734Z,3.38
2018-01-13T00:42:48.755Z,3.39
2018-01-13T00:42:52.473Z,3.37
2018-01-13T00:42:56.484Z,3.39
2018-01-13T00:43:00.502Z,3.37
2018-01-13T00:43:04.517Z,3.37
2018-01-13T00:43:08.413Z,3.39
2018-01-13T00:43:12.238Z,3.36
2018-01-13T00:43:16.258Z,3.38
2018-01-13T00:43:20.294Z,3.38
2018-01-13T00:43:24.415Z,3.38
2018-01-13T00:43:28.545Z,3.38
2018-01-13T00:43:32.461Z,3.38
2018-01-13T00:43:36.479Z,3.39
2018-01-13T00:43:40.287Z,3.37
2018-01-13T00:43:44.399Z,3.39
2018-01-13T00:43:48.518Z,3.38
2018-01-13T00:43:52.416Z,3.37
2018-01-13T00:43:56.226Z,3.38
2018-01-13T00:43:59.920Z,3.38
2018-01-13T00:44:03.725Z,3.38
2018-01-13T00:44:07.750Z,3.37
2018-01-13T00:44:11.553Z,3.36
2018-01-13T00:44:15.459Z,3.38
2018-01-13T00:44:19.367Z,3.37
2018-01-13T00:44:23.065Z,3.37
2018-01-13T00:44:26.974Z,3.38
2018-01-13T00:44:30.794Z,3.36
2018-01-13T00:44:34.700Z,3.38
2018-01-13T00:44:38.718Z,3.36
2018-01-13T00:44:42.739Z,3.37
2018-01-13T00:44:46.847Z,3.37
2018-01-13T00:44:50.979Z,3.37
2018-01-13T00:44:54.895Z,3.37
2018-01-13T00:44:58.700Z,3.38
2018-01-13T00:45:02.435Z,3.37
2018-01-13T00:45:06.449Z,3.37
2018-01-13T00:45:10.258Z,3.37
2018-01-13T00:45:14.373Z,3.36
2018-01-13T00:45:18.297Z,3.37
2018-01-13T00:45:22.206Z,3.37
2018-01-13T00:45:26.328Z,3.37
2018-01-13T00:45:30.355Z,3.37
2018-01-13T00:45:34.162Z,3.38
2018-01-13T00:45:37.959Z,3.36
2018-01-13T00:45:41.649Z,3.38
2018-01-13T00:45:45.669Z,3.37
2018-01-13T00:45:49.826Z,3.37
2018-01-13T00:45:53.753Z,3.37
2018-01-13T00:45:57.551Z,3.37
2018-01-13T00:46:01.987Z,3.37
2018-01-13T00:46:05.893Z,3.39
2018-01-13T00:46:09.685Z,3.36
2018-01-13T00:46:13.503Z,3.37
2018-01-13T00:46:17.517Z,3.38
2018-01-13T00:46:21.317Z,3.38
2018-01-13T00:46:25.327Z,3.38
2018-01-13T00:46:29.241Z,3.37
2018-01-13T00:46:33.171Z,3.38
2018-01-13T00:46:37.082Z,3.39
2018-01-13T00:46:41.009Z,3.37
2018-01-13T00:46:45.231Z,3.37
2018-01-13T00:46:49.124Z,3.38
2018-01-13T00:46:53.035Z,3.38
2018-01-13T00:46:56.962Z,3.38
2018-01-13T00:47:00.673Z,3.38
2018-01-13T00:47:04.488Z,3.38
2018-01-13T00:47:08.607Z,3.38
2018-01-13T00:47:12.409Z,3.38
2018-01-13T00:47:16.421Z,3.38
2018-01-13T00:47:20.226Z,3.38
2018-01-13T00:47:24.248Z,3.39
2018-01-13T00:47:28.054Z,3.37
2018-01-13T00:47:31.969Z,3.39
2018-01-13T00:47:36.087Z,3.38
2018-01-13T00:47:39.999Z,3.38
2018-01-13T00:47:43.891Z,3.37
2018-01-13T00:47:48.208Z,3.38
2018-01-13T00:47:52.241Z,3.38
2018-01-13T00:47:56.046Z,3.38
2018-01-13T00:47:59.962Z,3.38
2018-01-13T00:48:04.014Z,3.38
2018-01-13T00:48:07.719Z,3.37
2018-01-13T00:48:11.549Z,3.37
2018-01-13T00:48:15.344Z,3.38
2018-01-13T00:48:19.159Z,3.37
2018-01-13T00:48:23.167Z,3.38
2018-01-13T00:48:27.185Z,3.37
2018-01-13T00:48:30.993Z,3.37
2018-01-13T00:48:34.798Z,3.38
2018-01-13T00:48:38.815Z,3.36
2018-01-13T00:48:42.740Z,3.36
2018-01-13T00:48:46.752Z,3.37
2018-01-13T00:48:50.763Z,3.36
2018-01-13T00:48:54.658Z,3.36
2018-01-13T00:48:58.570Z,3.36
2018-01-13T00:49:02.597Z,3.36
2018-01-13T00:49:06.715Z,3.36
2018-01-13T00:49:10.515Z,3.36
2018-01-13T00:49:14.327Z,3.36
2018-01-13T00:49:18.144Z,3.36
2018-01-13T00:49:22.073Z,3.36
2018-01-13T00:49:25.990Z,3.37
2018-01-13T00:49:30.116Z,3.36
2018-01-13T00:49:34.012Z,3.36
2018-01-13T00:49:38.247Z,3.36
2018-01-13T00:49:42.258Z,3.35
2018-01-13T00:49:46.484Z,3.35
2018-01-13T00:49:50.517Z,3.36
2018-01-13T00:49:54.217Z,3.36
2018-01-13T00:49:58.246Z,3.36
2018-01-13T00:50:02.167Z,3.35
2018-01-13T00:50:06.309Z,3.36
2018-01-13T00:50:10.109Z,3.35
2018-01-13T00:50:14.229Z,3.36
2018-01-13T00:50:18.137Z,3.35
2018-01-13T00:50:22.060Z,3.35
2018-01-13T00:50:26.228Z,3.36
2018-01-13T00:50:30.032Z,3.35
2018-01-13T00:50:34.042Z,3.36
2018-01-13T00:50:37.965Z,3.35
2018-01-13T00:50:42.092Z,3.35
2018-01-13T00:50:46.317Z,3.35
2018-01-13T00:50:50.035Z,3.34
2018-01-13T00:50:54.044Z,3.36
2018-01-13T00:50:58.254Z,3.35
2018-01-13T00:51:02.355Z,3.35
2018-01-13T00:51:06.363Z,3.35
2018-01-13T00:51:10.498Z,3.35
2018-01-13T00:51:14.288Z,3.35
2018-01-13T00:51:18.211Z,3.36
2018-01-13T00:51:22.126Z,3.35
2018-01-13T00:51:25.932Z,3.36
2018-01-13T00:51:29.749Z,3.35
2018-01-13T00:51:33.543Z,3.35
2018-01-13T00:51:37.505Z,3.35
2018-01-13T00:51:41.321Z,3.34
2018-01-13T00:51:45.541Z,3.35
2018-01-13T00:51:49.666Z,3.35
2018-01-13T00:51:53.472Z,3.34
2018-01-13T00:51:57.376Z,3.34
2018-01-13T00:52:01.179Z,3.35
2018-01-13T00:52:05.082Z,3.35
2018-01-13T00:52:09.092Z,3.34
2018-01-13T00:52:13.020Z,3.34
2018-01-13T00:52:17.238Z,3.34
2018-01-13T00:52:21.259Z,3.33
2018-01-13T00:52:25.078Z,3.33
2018-01-13T00:52:28.902Z,3.34
2018-01-13T00:52:32.813Z,3.33